KMMU/MMU METAR and TAF weather

Enter ICAO airport designator
Station Type Date Time Source
KMMU METAR 2021/09/28 03:35 UTC NOAA

KMMU 280335Z AUTO 00000KT 10SM CLR 16/12 A2988 RMK AO2


Station Type Date Time Source
KMMU Decoded METAR 2021/09/28 03:35 UTC NOAA

Morristown Municipal, NJ, United States (KMMU) 40-48N 074-25W
Sep 27, 2021 - 11:35 PM EDT / 2021.09.28 0335 UTC
Wind: Calm:0
Visibility: 10 mile(s):0
Sky conditions: clear
Temperature: 60 F (16 C)
Dew Point: 53 F (12 C)
Relative Humidity: 77%
Pressure (altimeter): 29.88 in. Hg (1011 hPa)
ob: KMMU 280335Z AUTO 00000KT 10SM CLR 16/12 A2988 RMK AO2
cycle: 3

Station Type Date Time Source
KMMU TAF UTC NOAA

Error!

Example: see airport list